Cape Baltic — 9VHL8 — position and weather

sailwx.info

Track history (hours):
 
Tides and Currents Weather Stations Pressure Air Temp Water Temp Dewpoint Dewpoint Depression Visibility Wind Speed Wind Dir Waves Ship Positions

Cape Baltic

Last reported at 2018-Jun-21 16:59 UTC. Time now 2018-Jun-25 11:31 UTC.
Position S 34°01' E 017°30'.

Length 289 m; draft 9.5 m.

Type: Ship. MMSI: 565030000.

Date/timePositionNaut miles runAvg speedWind from/ knotsBaromVisibWave heightAir tempDewpointWater temp
2018-Jun-21 16:59S 34°01' E 017°30'713.1
2018-Jun-21 16:25S 34°07' E 017°36'512.9
2018-Jun-21 16:00S 34°09' E 017°41'612.6
2018-Jun-21 15:30S 34°13' E 017°48'612.9
2018-Jun-21 15:00S 34°16' E 017°54'612.3
2018-Jun-21 14:30S 34°20' E 018°00'712.7
2018-Jun-21 13:59S 34°23' E 018°07'612.6
2018-Jun-21 13:31S 34°26' E 018°13'612.0
2018-Jun-21 12:59S 34°29' E 018°20'612.1
2018-Jun-21 12:30S 34°32' E 018°26'612.6
2018-Jun-21 12:00S 34°35' E 018°33'612.3
2018-Jun-21 11:30S 34°38' E 018°40'612.5
2018-Jun-21 11:00S 34°41' E 018°47'612.6
2018-Jun-21 10:30S 34°44' E 018°53'  
2018-Jun-18 18:57S 30°30' E 033°03'1214.9
2018-Jun-18 18:10S 30°25' E 033°15'  
Track history (hours):
 
Tides and Currents Weather Stations Pressure Air Temp Water Temp Dewpoint Dewpoint Depression Visibility Wind Speed Wind Dir Waves Ship Positions

Cape Baltic

Last reported at 2018-Jun-21 16:59 UTC. Time now 2018-Jun-25 11:31 UTC.
Position S 34°01' E 017°30'.

Length 289 m; draft 9.5 m.

Type: Ship. MMSI: 565030000.

Date/timePositionNaut miles runAvg speedWind from/ knotsBaromVisibWave heightAir tempDewpointWater temp
2018-Jun-21 16:59S 34°01' E 017°30'713.1
2018-Jun-21 16:25S 34°07' E 017°36'512.9
2018-Jun-21 16:00S 34°09' E 017°41'612.6
2018-Jun-21 15:30S 34°13' E 017°48'612.9
2018-Jun-21 15:00S 34°16' E 017°54'612.3
2018-Jun-21 14:30S 34°20' E 018°00'712.7
2018-Jun-21 13:59S 34°23' E 018°07'612.6
2018-Jun-21 13:31S 34°26' E 018°13'612.0
2018-Jun-21 12:59S 34°29' E 018°20'612.1
2018-Jun-21 12:30S 34°32' E 018°26'612.6
2018-Jun-21 12:00S 34°35' E 018°33'612.3
2018-Jun-21 11:30S 34°38' E 018°40'612.5
2018-Jun-21 11:00S 34°41' E 018°47'612.6
2018-Jun-21 10:30S 34°44' E 018°53'  
2018-Jun-18 18:57S 30°30' E 033°03'1214.9
2018-Jun-18 18:10S 30°25' E 033°15'  

Dump ship's entire track history